sensor_id;sensor_type;location;lat;lon;timestamp;P1;durP1;ratioP1;P2;durP2;ratioP2
20124;SDS011;10223;50.862;4.360;2023-07-31T00:00:39;20.35;;;5.93;;
20124;SDS011;10223;50.862;4.360;2023-07-31T00:03:06;13.10;;;4.43;;
20124;SDS011;10223;50.862;4.360;2023-07-31T00:05:32;13.95;;;4.50;;
20124;SDS011;10223;50.862;4.360;2023-07-31T00:07:59;12.63;;;4.60;;
20124;SDS011;10223;50.862;4.360;2023-07-31T00:10:26;14.38;;;4.70;;
20124;SDS011;10223;50.862;4.360;2023-07-31T00:12:54;15.88;;;4.18;;
20124;SDS011;10223;50.862;4.360;2023-07-31T00:15:21;17.10;;;5.10;;
20124;SDS011;10223;50.862;4.360;2023-07-31T00:17:48;12.45;;;4.05;;
20124;SDS011;10223;50.862;4.360;2023-07-31T00:20:15;14.75;;;4.70;;
20124;SDS011;10223;50.862;4.360;2023-07-31T00:22:41;20.15;;;4.85;;
20124;SDS011;10223;50.862;4.360;2023-07-31T00:25:08;16.17;;;4.30;;
20124;SDS011;10223;50.862;4.360;2023-07-31T00:27:35;14.90;;;5.15;;
20124;SDS011;10223;50.862;4.360;2023-07-31T00:30:03;18.63;;;4.57;;
20124;SDS011;10223;50.862;4.360;2023-07-31T00:32:31;18.70;;;5.80;;
20124;SDS011;10223;50.862;4.360;2023-07-31T00:34:58;14.00;;;4.43;;
20124;SDS011;10223;50.862;4.360;2023-07-31T00:37:25;20.90;;;5.40;;
20124;SDS011;10223;50.862;4.360;2023-07-31T00:39:51;16.75;;;5.57;;
20124;SDS011;10223;50.862;4.360;2023-07-31T00:42:18;16.25;;;5.22;;
20124;SDS011;10223;50.862;4.360;2023-07-31T00:44:45;14.60;;;4.70;;
20124;SDS011;10223;50.862;4.360;2023-07-31T00:47:13;16.63;;;4.70;;
20124;SDS011;10223;50.862;4.360;2023-07-31T00:49:40;17.75;;;4.88;;
20124;SDS011;10223;50.862;4.360;2023-07-31T00:52:08;15.43;;;4.63;;
20124;SDS011;10223;50.862;4.360;2023-07-31T00:54:35;13.02;;;4.25;;
20124;SDS011;10223;50.862;4.360;2023-07-31T00:57:03;13.13;;;4.13;;
20124;SDS011;10223;50.862;4.360;2023-07-31T00:59:30;13.68;;;4.32;;
20124;SDS011;10223;50.862;4.360;2023-07-31T01:01:56;11.98;;;4.15;;
20124;SDS011;10223;50.862;4.360;2023-07-31T01:04:25;13.70;;;4.50;;
20124;SDS011;10223;50.862;4.360;2023-07-31T01:06:54;12.15;;;4.30;;
20124;SDS011;10223;50.862;4.360;2023-07-31T01:09:29;11.90;;;3.97;;
20124;SDS011;10223;50.862;4.360;2023-07-31T01:12:03;13.23;;;3.95;;
20124;SDS011;10223;50.862;4.360;2023-07-31T01:14:32;19.10;;;4.90;;
20124;SDS011;10223;50.862;4.360;2023-07-31T01:17:00;12.85;;;4.10;;
20124;SDS011;10223;50.862;4.360;2023-07-31T01:19:28;16.40;;;5.20;;
20124;SDS011;10223;50.862;4.360;2023-07-31T01:21:58;16.85;;;4.90;;
20124;SDS011;10223;50.862;4.360;2023-07-31T01:24:45;16.38;;;4.20;;
20124;SDS011;10223;50.862;4.360;2023-07-31T01:27:23;18.83;;;4.43;;
20124;SDS011;10223;50.862;4.360;2023-07-31T01:29:53;13.57;;;4.97;;
20124;SDS011;10223;50.862;4.360;2023-07-31T01:32:26;11.50;;;4.20;;
20124;SDS011;10223;50.862;4.360;2023-07-31T01:34:55;13.25;;;4.38;;
20124;SDS011;10223;50.862;4.360;2023-07-31T01:37:27;14.50;;;4.75;;
20124;SDS011;10223;50.862;4.360;2023-07-31T01:39:54;12.85;;;4.50;;
20124;SDS011;10223;50.862;4.360;2023-07-31T01:42:22;14.18;;;4.57;;
20124;SDS011;10223;50.862;4.360;2023-07-31T01:44:49;13.73;;;4.28;;
20124;SDS011;10223;50.862;4.360;2023-07-31T01:47:16;16.98;;;4.50;;
20124;SDS011;10223;50.862;4.360;2023-07-31T01:49:43;14.63;;;4.13;;
20124;SDS011;10223;50.862;4.360;2023-07-31T01:52:09;12.82;;;5.00;;
20124;SDS011;10223;50.862;4.360;2023-07-31T01:54:36;13.18;;;4.80;;
20124;SDS011;10223;50.862;4.360;2023-07-31T01:57:03;13.38;;;4.20;;
20124;SDS011;10223;50.862;4.360;2023-07-31T01:59:32;14.23;;;4.53;;
20124;SDS011;10223;50.862;4.360;2023-07-31T02:01:58;12.60;;;4.25;;
20124;SDS011;10223;50.862;4.360;2023-07-31T02:04:25;16.05;;;5.07;;
20124;SDS011;10223;50.862;4.360;2023-07-31T02:06:52;14.48;;;4.32;;
20124;SDS011;10223;50.862;4.360;2023-07-31T02:09:19;16.77;;;5.00;;
20124;SDS011;10223;50.862;4.360;2023-07-31T02:11:46;11.43;;;4.68;;
20124;SDS011;10223;50.862;4.360;2023-07-31T02:14:13;15.68;;;5.18;;
20124;SDS011;10223;50.862;4.360;2023-07-31T02:16:41;12.55;;;4.32;;
20124;SDS011;10223;50.862;4.360;2023-07-31T02:19:08;17.73;;;5.55;;
20124;SDS011;10223;50.862;4.360;2023-07-31T02:21:35;17.48;;;5.60;;
20124;SDS011;10223;50.862;4.360;2023-07-31T02:24:02;15.02;;;5.40;;
20124;SDS011;10223;50.862;4.360;2023-07-31T02:26:29;15.43;;;5.30;;
20124;SDS011;10223;50.862;4.360;2023-07-31T02:28:56;15.88;;;5.25;;
20124;SDS011;10223;50.862;4.360;2023-07-31T02:31:23;11.88;;;5.28;;
20124;SDS011;10223;50.862;4.360;2023-07-31T02:33:51;13.77;;;4.65;;
20124;SDS011;10223;50.862;4.360;2023-07-31T02:36:18;15.82;;;4.85;;
20124;SDS011;10223;50.862;4.360;2023-07-31T02:38:45;17.02;;;5.05;;
20124;SDS011;10223;50.862;4.360;2023-07-31T02:41:12;14.98;;;5.47;;
20124;SDS011;10223;50.862;4.360;2023-07-31T02:43:39;13.90;;;4.68;;
20124;SDS011;10223;50.862;4.360;2023-07-31T02:46:05;12.30;;;4.88;;
20124;SDS011;10223;50.862;4.360;2023-07-31T02:48:32;10.45;;;5.15;;
20124;SDS011;10223;50.862;4.360;2023-07-31T02:51:00;11.35;;;5.00;;
20124;SDS011;10223;50.862;4.360;2023-07-31T02:53:27;11.00;;;4.78;;
20124;SDS011;10223;50.862;4.360;2023-07-31T02:55:54;11.02;;;4.47;;
20124;SDS011;10223;50.862;4.360;2023-07-31T02:58:21;13.20;;;5.00;;
20124;SDS011;10223;50.862;4.360;2023-07-31T03:00:47;11.13;;;4.90;;
20124;SDS011;10223;50.862;4.360;2023-07-31T03:03:14;13.30;;;4.70;;
20124;SDS011;10223;50.862;4.360;2023-07-31T03:05:41;10.68;;;4.00;;
20124;SDS011;10223;50.862;4.360;2023-07-31T03:08:09;10.45;;;3.97;;
20124;SDS011;10223;50.862;4.360;2023-07-31T03:10:36;15.93;;;4.70;;
20124;SDS011;10223;50.862;4.360;2023-07-31T03:13:03;9.50;;;4.53;;
20124;SDS011;10223;50.862;4.360;2023-07-31T03:15:30;7.70;;;3.97;;
20124;SDS011;10223;50.862;4.360;2023-07-31T03:17:56;8.05;;;4.15;;
20124;SDS011;10223;50.862;4.360;2023-07-31T03:20:23;8.82;;;3.60;;
20124;SDS011;10223;50.862;4.360;2023-07-31T03:22:50;13.38;;;3.70;;
20124;SDS011;10223;50.862;4.360;2023-07-31T03:25:18;9.73;;;4.30;;
20124;SDS011;10223;50.862;4.360;2023-07-31T03:27:45;6.93;;;3.90;;
20124;SDS011;10223;50.862;4.360;2023-07-31T03:30:12;8.73;;;3.77;;
20124;SDS011;10223;50.862;4.360;2023-07-31T03:32:39;10.80;;;4.70;;
20124;SDS011;10223;50.862;4.360;2023-07-31T03:35:06;11.73;;;4.20;;
20124;SDS011;10223;50.862;4.360;2023-07-31T03:37:33;13.93;;;4.63;;
20124;SDS011;10223;50.862;4.360;2023-07-31T03:39:59;9.45;;;4.03;;
20124;SDS011;10223;50.862;4.360;2023-07-31T03:42:28;15.00;;;5.18;;
20124;SDS011;10223;50.862;4.360;2023-07-31T03:44:54;11.80;;;4.27;;
20124;SDS011;10223;50.862;4.360;2023-07-31T03:47:21;11.07;;;4.17;;
20124;SDS011;10223;50.862;4.360;2023-07-31T03:49:48;10.87;;;4.03;;
20124;SDS011;10223;50.862;4.360;2023-07-31T03:52:15;10.33;;;4.30;;
20124;SDS011;10223;50.862;4.360;2023-07-31T03:54:41;9.83;;;4.47;;
20124;SDS011;10223;50.862;4.360;2023-07-31T03:57:09;12.53;;;4.80;;
20124;SDS011;10223;50.862;4.360;2023-07-31T03:59:37;10.83;;;4.23;;
20124;SDS011;10223;50.862;4.360;2023-07-31T04:02:04;9.73;;;4.65;;
20124;SDS011;10223;50.862;4.360;2023-07-31T04:04:31;9.30;;;4.13;;
20124;SDS011;10223;50.862;4.360;2023-07-31T04:06:58;7.33;;;3.93;;
20124;SDS011;10223;50.862;4.360;2023-07-31T04:09:25;10.40;;;4.37;;
20124;SDS011;10223;50.862;4.360;2023-07-31T04:11:51;8.20;;;3.80;;
20124;SDS011;10223;50.862;4.360;2023-07-31T04:14:18;9.40;;;4.30;;
20124;SDS011;10223;50.862;4.360;2023-07-31T04:16:46;8.77;;;4.03;;
20124;SDS011;10223;50.862;4.360;2023-07-31T04:19:13;8.20;;;4.00;;
20124;SDS011;10223;50.862;4.360;2023-07-31T04:21:41;7.30;;;3.80;;
20124;SDS011;10223;50.862;4.360;2023-07-31T04:24:08;10.53;;;4.20;;
20124;SDS011;10223;50.862;4.360;2023-07-31T04:26:35;12.97;;;4.90;;
20124;SDS011;10223;50.862;4.360;2023-07-31T04:29:02;10.97;;;4.10;;
20124;SDS011;10223;50.862;4.360;2023-07-31T04:31:29;10.03;;;4.53;;
20124;SDS011;10223;50.862;4.360;2023-07-31T04:33:57;10.93;;;4.37;;
20124;SDS011;10223;50.862;4.360;2023-07-31T04:36:24;9.10;;;4.33;;
20124;SDS011;10223;50.862;4.360;2023-07-31T04:38:50;12.53;;;4.23;;
20124;SDS011;10223;50.862;4.360;2023-07-31T04:41:17;9.13;;;4.43;;
20124;SDS011;10223;50.862;4.360;2023-07-31T04:43:44;6.53;;;3.72;;
20124;SDS011;10223;50.862;4.360;2023-07-31T04:46:12;8.48;;;4.05;;
20124;SDS011;10223;50.862;4.360;2023-07-31T04:48:39;11.18;;;4.60;;
20124;SDS011;10223;50.862;4.360;2023-07-31T04:51:07;12.05;;;4.00;;
20124;SDS011;10223;50.862;4.360;2023-07-31T04:53:34;11.27;;;4.10;;
20124;SDS011;10223;50.862;4.360;2023-07-31T04:56:01;10.20;;;3.83;;
20124;SDS011;10223;50.862;4.360;2023-07-31T04:58:28;7.32;;;3.70;;
20124;SDS011;10223;50.862;4.360;2023-07-31T05:00:55;8.57;;;4.35;;
20124;SDS011;10223;50.862;4.360;2023-07-31T05:03:22;5.85;;;3.80;;
20124;SDS011;10223;50.862;4.360;2023-07-31T05:05:49;11.60;;;4.20;;
20124;SDS011;10223;50.862;4.360;2023-07-31T05:08:17;8.00;;;4.07;;
20124;SDS011;10223;50.862;4.360;2023-07-31T05:10:44;8.50;;;4.00;;
20124;SDS011;10223;50.862;4.360;2023-07-31T05:13:11;8.60;;;3.93;;
20124;SDS011;10223;50.862;4.360;2023-07-31T05:15:37;15.20;;;4.20;;
20124;SDS011;10223;50.862;4.360;2023-07-31T05:18:04;10.97;;;4.53;;
20124;SDS011;10223;50.862;4.360;2023-07-31T05:20:31;10.03;;;4.20;;
20124;SDS011;10223;50.862;4.360;2023-07-31T05:22:58;8.97;;;3.60;;
20124;SDS011;10223;50.862;4.360;2023-07-31T05:25:26;9.20;;;4.00;;
20124;SDS011;10223;50.862;4.360;2023-07-31T05:27:53;13.33;;;4.40;;
20124;SDS011;10223;50.862;4.360;2023-07-31T05:30:20;14.27;;;5.00;;
20124;SDS011;10223;50.862;4.360;2023-07-31T05:32:46;8.43;;;3.93;;
20124;SDS011;10223;50.862;4.360;2023-07-31T05:35:13;9.83;;;3.80;;
20124;SDS011;10223;50.862;4.360;2023-07-31T05:37:40;14.63;;;4.40;;
20124;SDS011;10223;50.862;4.360;2023-07-31T05:40:07;11.37;;;4.77;;
20124;SDS011;10223;50.862;4.360;2023-07-31T05:42:36;8.60;;;3.60;;
20124;SDS011;10223;50.862;4.360;2023-07-31T05:45:04;12.17;;;4.20;;
20124;SDS011;10223;50.862;4.360;2023-07-31T05:47:31;11.33;;;4.07;;
20124;SDS011;10223;50.862;4.360;2023-07-31T05:49:58;12.90;;;4.17;;
20124;SDS011;10223;50.862;4.360;2023-07-31T05:52:25;6.70;;;3.77;;
20124;SDS011;10223;50.862;4.360;2023-07-31T05:54:53;9.70;;;4.27;;
20124;SDS011;10223;50.862;4.360;2023-07-31T05:57:20;11.83;;;4.20;;
20124;SDS011;10223;50.862;4.360;2023-07-31T05:59:48;14.93;;;4.43;;
20124;SDS011;10223;50.862;4.360;2023-07-31T06:02:15;7.40;;;3.63;;
20124;SDS011;10223;50.862;4.360;2023-07-31T06:04:42;10.80;;;4.27;;
20124;SDS011;10223;50.862;4.360;2023-07-31T06:07:09;9.73;;;3.77;;
20124;SDS011;10223;50.862;4.360;2023-07-31T06:09:36;10.17;;;4.57;;
20124;SDS011;10223;50.862;4.360;2023-07-31T06:12:03;8.87;;;3.67;;
20124;SDS011;10223;50.862;4.360;2023-07-31T06:14:30;10.43;;;3.90;;
20124;SDS011;10223;50.862;4.360;2023-07-31T06:16:59;9.57;;;3.90;;
20124;SDS011;10223;50.862;4.360;2023-07-31T06:19:26;12.33;;;3.60;;
20124;SDS011;10223;50.862;4.360;2023-07-31T06:21:52;8.67;;;3.40;;
20124;SDS011;10223;50.862;4.360;2023-07-31T06:24:19;9.73;;;3.90;;
20124;SDS011;10223;50.862;4.360;2023-07-31T06:26:47;7.70;;;3.40;;
20124;SDS011;10223;50.862;4.360;2023-07-31T06:29:14;6.13;;;3.27;;
20124;SDS011;10223;50.862;4.360;2023-07-31T06:31:40;10.63;;;3.97;;
20124;SDS011;10223;50.862;4.360;2023-07-31T06:34:09;9.97;;;3.87;;
20124;SDS011;10223;50.862;4.360;2023-07-31T06:36:35;7.03;;;3.20;;
20124;SDS011;10223;50.862;4.360;2023-07-31T06:39:02;9.90;;;3.97;;
20124;SDS011;10223;50.862;4.360;2023-07-31T06:41:29;10.50;;;4.13;;
20124;SDS011;10223;50.862;4.360;2023-07-31T06:43:56;10.37;;;3.60;;
20124;SDS011;10223;50.862;4.360;2023-07-31T06:46:23;12.37;;;3.60;;
20124;SDS011;10223;50.862;4.360;2023-07-31T06:48:50;6.67;;;3.37;;
20124;SDS011;10223;50.862;4.360;2023-07-31T06:51:18;9.17;;;3.53;;
20124;SDS011;10223;50.862;4.360;2023-07-31T06:53:45;9.17;;;3.43;;
20124;SDS011;10223;50.862;4.360;2023-07-31T06:56:12;13.75;;;3.45;;
20124;SDS011;10223;50.862;4.360;2023-07-31T06:58:39;6.97;;;3.03;;
20124;SDS011;10223;50.862;4.360;2023-07-31T07:01:06;10.70;;;3.70;;
20124;SDS011;10223;50.862;4.360;2023-07-31T07:03:32;10.07;;;3.47;;
20124;SDS011;10223;50.862;4.360;2023-07-31T07:05:59;9.90;;;3.50;;
20124;SDS011;10223;50.862;4.360;2023-07-31T07:08:28;8.25;;;3.38;;
20124;SDS011;10223;50.862;4.360;2023-07-31T07:10:54;7.40;;;3.27;;
20124;SDS011;10223;50.862;4.360;2023-07-31T07:13:21;8.20;;;3.10;;
20124;SDS011;10223;50.862;4.360;2023-07-31T07:15:48;8.43;;;3.37;;
20124;SDS011;10223;50.862;4.360;2023-07-31T07:18:15;10.30;;;3.00;;
20124;SDS011;10223;50.862;4.360;2023-07-31T07:20:45;12.02;;;3.30;;
20124;SDS011;10223;50.862;4.360;2023-07-31T07:23:13;9.53;;;2.93;;
20124;SDS011;10223;50.862;4.360;2023-07-31T07:25:41;8.10;;;3.07;;
20124;SDS011;10223;50.862;4.360;2023-07-31T07:28:08;7.87;;;3.83;;
20124;SDS011;10223;50.862;4.360;2023-07-31T07:30:35;7.30;;;2.78;;
20124;SDS011;10223;50.862;4.360;2023-07-31T07:33:02;12.40;;;3.10;;
20124;SDS011;10223;50.862;4.360;2023-07-31T07:35:29;10.88;;;3.13;;
20124;SDS011;10223;50.862;4.360;2023-07-31T07:37:55;7.95;;;3.10;;
20124;SDS011;10223;50.862;4.360;2023-07-31T07:40:22;9.27;;;2.75;;
20124;SDS011;10223;50.862;4.360;2023-07-31T07:42:51;8.27;;;3.22;;
20124;SDS011;10223;50.862;4.360;2023-07-31T07:45:17;9.90;;;3.30;;
20124;SDS011;10223;50.862;4.360;2023-07-31T07:47:44;6.47;;;2.90;;
20124;SDS011;10223;50.862;4.360;2023-07-31T07:50:11;7.67;;;2.83;;
20124;SDS011;10223;50.862;4.360;2023-07-31T07:52:38;9.13;;;3.17;;
20124;SDS011;10223;50.862;4.360;2023-07-31T07:55:05;8.17;;;2.90;;
20124;SDS011;10223;50.862;4.360;2023-07-31T07:57:32;7.68;;;3.58;;
20124;SDS011;10223;50.862;4.360;2023-07-31T08:00:00;11.63;;;3.30;;
20124;SDS011;10223;50.862;4.360;2023-07-31T08:02:27;9.43;;;2.83;;
20124;SDS011;10223;50.862;4.360;2023-07-31T08:04:54;9.48;;;3.50;;
20124;SDS011;10223;50.862;4.360;2023-07-31T08:07:21;7.40;;;3.13;;
20124;SDS011;10223;50.862;4.360;2023-07-31T08:09:47;7.13;;;3.88;;
20124;SDS011;10223;50.862;4.360;2023-07-31T08:12:14;7.00;;;3.08;;
20124;SDS011;10223;50.862;4.360;2023-07-31T08:14:41;8.80;;;2.95;;
20124;SDS011;10223;50.862;4.360;2023-07-31T08:17:09;9.80;;;2.42;;
20124;SDS011;10223;50.862;4.360;2023-07-31T08:19:36;7.07;;;2.60;;
20124;SDS011;10223;50.862;4.360;2023-07-31T08:22:03;9.18;;;3.10;;
20124;SDS011;10223;50.862;4.360;2023-07-31T08:24:30;8.23;;;2.67;;
20124;SDS011;10223;50.862;4.360;2023-07-31T08:26:56;7.80;;;3.05;;
20124;SDS011;10223;50.862;4.360;2023-07-31T08:29:23;7.25;;;2.88;;
20124;SDS011;10223;50.862;4.360;2023-07-31T08:31:51;10.07;;;2.80;;
20124;SDS011;10223;50.862;4.360;2023-07-31T08:34:19;7.57;;;3.47;;
20124;SDS011;10223;50.862;4.360;2023-07-31T08:36:46;7.43;;;3.17;;
20124;SDS011;10223;50.862;4.360;2023-07-31T08:39:13;11.05;;;2.75;;
20124;SDS011;10223;50.862;4.360;2023-07-31T08:41:40;6.17;;;2.87;;
20124;SDS011;10223;50.862;4.360;2023-07-31T08:44:06;8.60;;;2.77;;
20124;SDS011;10223;50.862;4.360;2023-07-31T08:46:33;8.55;;;3.15;;
20124;SDS011;10223;50.862;4.360;2023-07-31T08:49:02;6.47;;;3.00;;
20124;SDS011;10223;50.862;4.360;2023-07-31T08:51:33;9.83;;;3.77;;
20124;SDS011;10223;50.862;4.360;2023-07-31T08:54:00;7.80;;;3.43;;
20124;SDS011;10223;50.862;4.360;2023-07-31T08:56:29;9.00;;;3.23;;
20124;SDS011;10223;50.862;4.360;2023-07-31T08:58:57;10.70;;;3.45;;
20124;SDS011;10223;50.862;4.360;2023-07-31T09:01:25;10.75;;;3.08;;
20124;SDS011;10223;50.862;4.360;2023-07-31T09:03:55;11.85;;;3.17;;
20124;SDS011;10223;50.862;4.360;2023-07-31T09:06:24;5.95;;;2.95;;
20124;SDS011;10223;50.862;4.360;2023-07-31T09:08:56;8.32;;;3.13;;
20124;SDS011;10223;50.862;4.360;2023-07-31T09:11:23;10.98;;;3.15;;
20124;SDS011;10223;50.862;4.360;2023-07-31T09:13:51;10.90;;;3.33;;
20124;SDS011;10223;50.862;4.360;2023-07-31T09:16:18;11.85;;;3.63;;
20124;SDS011;10223;50.862;4.360;2023-07-31T09:18:54;6.07;;;3.10;;
20124;SDS011;10223;50.862;4.360;2023-07-31T09:21:22;12.35;;;3.60;;
20124;SDS011;10223;50.862;4.360;2023-07-31T09:23:50;8.48;;;3.13;;
20124;SDS011;10223;50.862;4.360;2023-07-31T09:26:30;10.30;;;3.58;;
20124;SDS011;10223;50.862;4.360;2023-07-31T09:28:58;8.65;;;3.45;;
20124;SDS011;10223;50.862;4.360;2023-07-31T09:31:31;13.45;;;3.63;;
20124;SDS011;10223;50.862;4.360;2023-07-31T09:33:59;5.97;;;3.22;;
20124;SDS011;10223;50.862;4.360;2023-07-31T09:36:28;9.73;;;3.55;;
20124;SDS011;10223;50.862;4.360;2023-07-31T09:38:56;7.03;;;3.03;;
20124;SDS011;10223;50.862;4.360;2023-07-31T09:41:29;13.50;;;3.67;;
20124;SDS011;10223;50.862;4.360;2023-07-31T09:43:56;9.98;;;3.33;;
20124;SDS011;10223;50.862;4.360;2023-07-31T09:46:23;9.88;;;3.95;;
20124;SDS011;10223;50.862;4.360;2023-07-31T09:48:53;8.93;;;4.07;;
20124;SDS011;10223;50.862;4.360;2023-07-31T09:51:29;11.73;;;4.22;;
20124;SDS011;10223;50.862;4.360;2023-07-31T09:53:56;11.68;;;4.43;;
20124;SDS011;10223;50.862;4.360;2023-07-31T09:56:23;7.78;;;4.13;;
20124;SDS011;10223;50.862;4.360;2023-07-31T09:58:51;9.82;;;4.90;;
20124;SDS011;10223;50.862;4.360;2023-07-31T10:01:19;13.43;;;5.10;;
20124;SDS011;10223;50.862;4.360;2023-07-31T10:03:46;8.13;;;4.55;;
20124;SDS011;10223;50.862;4.360;2023-07-31T10:06:13;15.20;;;6.20;;
20124;SDS011;10223;50.862;4.360;2023-07-31T10:08:44;14.75;;;5.72;;
20124;SDS011;10223;50.862;4.360;2023-07-31T10:11:17;13.45;;;4.82;;
20124;SDS011;10223;50.862;4.360;2023-07-31T10:13:45;13.75;;;5.72;;
20124;SDS011;10223;50.862;4.360;2023-07-31T10:16:13;12.80;;;5.55;;
20124;SDS011;10223;50.862;4.360;2023-07-31T10:18:41;13.15;;;5.80;;
20124;SDS011;10223;50.862;4.360;2023-07-31T10:21:09;13.15;;;5.22;;
20124;SDS011;10223;50.862;4.360;2023-07-31T10:23:37;11.20;;;5.30;;
20124;SDS011;10223;50.862;4.360;2023-07-31T10:26:05;15.98;;;5.80;;
20124;SDS011;10223;50.862;4.360;2023-07-31T10:28:34;12.05;;;5.20;;
20124;SDS011;10223;50.862;4.360;2023-07-31T10:31:02;13.75;;;5.47;;
20124;SDS011;10223;50.862;4.360;2023-07-31T10:33:31;17.73;;;5.88;;
20124;SDS011;10223;50.862;4.360;2023-07-31T10:36:14;12.15;;;5.00;;
20124;SDS011;10223;50.862;4.360;2023-07-31T10:38:43;13.25;;;5.00;;
20124;SDS011;10223;50.862;4.360;2023-07-31T10:41:10;11.67;;;4.77;;
20124;SDS011;10223;50.862;4.360;2023-07-31T10:43:37;10.60;;;4.80;;
20124;SDS011;10223;50.862;4.360;2023-07-31T10:46:07;11.35;;;5.00;;
20124;SDS011;10223;50.862;4.360;2023-07-31T10:48:36;17.00;;;5.20;;
20124;SDS011;10223;50.862;4.360;2023-07-31T10:51:06;8.73;;;4.68;;
20124;SDS011;10223;50.862;4.360;2023-07-31T10:53:36;11.95;;;4.38;;
20124;SDS011;10223;50.862;4.360;2023-07-31T10:56:03;17.20;;;5.60;;
20124;SDS011;10223;50.862;4.360;2023-07-31T10:58:31;12.98;;;5.40;;
20124;SDS011;10223;50.862;4.360;2023-07-31T11:01:00;13.13;;;4.65;;
20124;SDS011;10223;50.862;4.360;2023-07-31T11:03:41;11.10;;;4.60;;
20124;SDS011;10223;50.862;4.360;2023-07-31T11:06:10;15.63;;;5.13;;
20124;SDS011;10223;50.862;4.360;2023-07-31T11:08:41;12.25;;;4.72;;
20124;SDS011;10223;50.862;4.360;2023-07-31T11:11:09;11.80;;;4.68;;
20124;SDS011;10223;50.862;4.360;2023-07-31T11:13:41;13.73;;;4.43;;
20124;SDS011;10223;50.862;4.360;2023-07-31T11:16:09;11.65;;;3.92;;
20124;SDS011;10223;50.862;4.360;2023-07-31T11:18:38;13.65;;;5.07;;
20124;SDS011;10223;50.862;4.360;2023-07-31T11:21:08;9.20;;;4.57;;
20124;SDS011;10223;50.862;4.360;2023-07-31T11:23:37;9.32;;;3.78;;
20124;SDS011;10223;50.862;4.360;2023-07-31T11:26:05;11.00;;;4.95;;
20124;SDS011;10223;50.862;4.360;2023-07-31T11:28:32;8.77;;;4.15;;
20124;SDS011;10223;50.862;4.360;2023-07-31T11:31:00;12.43;;;4.35;;
20124;SDS011;10223;50.862;4.360;2023-07-31T11:33:28;12.45;;;4.63;;
20124;SDS011;10223;50.862;4.360;2023-07-31T11:35:55;8.68;;;3.97;;
20124;SDS011;10223;50.862;4.360;2023-07-31T11:38:25;11.85;;;4.20;;
20124;SDS011;10223;50.862;4.360;2023-07-31T11:40:53;11.32;;;4.53;;
20124;SDS011;10223;50.862;4.360;2023-07-31T11:43:20;14.15;;;4.68;;
20124;SDS011;10223;50.862;4.360;2023-07-31T11:45:48;15.27;;;4.90;;
20124;SDS011;10223;50.862;4.360;2023-07-31T11:48:19;16.77;;;4.60;;
20124;SDS011;10223;50.862;4.360;2023-07-31T11:50:48;11.63;;;4.22;;
20124;SDS011;10223;50.862;4.360;2023-07-31T11:53:17;10.00;;;4.20;;
20124;SDS011;10223;50.862;4.360;2023-07-31T11:55:48;11.73;;;4.43;;
20124;SDS011;10223;50.862;4.360;2023-07-31T11:58:16;9.73;;;4.28;;
20124;SDS011;10223;50.862;4.360;2023-07-31T12:00:44;13.35;;;4.43;;
20124;SDS011;10223;50.862;4.360;2023-07-31T12:03:11;8.07;;;4.35;;
20124;SDS011;10223;50.862;4.360;2023-07-31T12:05:38;14.85;;;4.72;;
20124;SDS011;10223;50.862;4.360;2023-07-31T12:08:08;12.55;;;5.13;;
20124;SDS011;10223;50.862;4.360;2023-07-31T12:10:37;11.65;;;4.22;;
20124;SDS011;10223;50.862;4.360;2023-07-31T12:13:07;8.63;;;4.53;;
20124;SDS011;10223;50.862;4.360;2023-07-31T12:15:38;9.43;;;4.15;;
20124;SDS011;10223;50.862;4.360;2023-07-31T12:18:08;14.60;;;4.50;;
20124;SDS011;10223;50.862;4.360;2023-07-31T12:20:39;14.70;;;4.35;;
20124;SDS011;10223;50.862;4.360;2023-07-31T12:23:12;11.50;;;4.93;;
20124;SDS011;10223;50.862;4.360;2023-07-31T12:25:40;16.52;;;4.93;;
20124;SDS011;10223;50.862;4.360;2023-07-31T12:28:08;12.60;;;4.50;;
20124;SDS011;10223;50.862;4.360;2023-07-31T12:30:37;13.40;;;4.80;;
20124;SDS011;10223;50.862;4.360;2023-07-31T12:33:06;10.43;;;4.50;;
20124;SDS011;10223;50.862;4.360;2023-07-31T12:35:39;13.82;;;4.80;;
20124;SDS011;10223;50.862;4.360;2023-07-31T12:38:07;11.93;;;4.88;;
20124;SDS011;10223;50.862;4.360;2023-07-31T12:40:36;16.42;;;4.60;;
20124;SDS011;10223;50.862;4.360;2023-07-31T12:43:03;9.35;;;3.90;;
20124;SDS011;10223;50.862;4.360;2023-07-31T12:45:32;12.52;;;4.50;;
20124;SDS011;10223;50.862;4.360;2023-07-31T12:47:59;11.50;;;3.85;;
20124;SDS011;10223;50.862;4.360;2023-07-31T12:50:26;12.20;;;4.13;;
20124;SDS011;10223;50.862;4.360;2023-07-31T12:52:53;9.23;;;4.10;;
20124;SDS011;10223;50.862;4.360;2023-07-31T12:55:20;12.68;;;4.32;;
20124;SDS011;10223;50.862;4.360;2023-07-31T12:57:47;7.13;;;3.58;;
20124;SDS011;10223;50.862;4.360;2023-07-31T13:00:14;9.55;;;4.15;;
20124;SDS011;10223;50.862;4.360;2023-07-31T13:02:43;9.82;;;4.60;;
20124;SDS011;10223;50.862;4.360;2023-07-31T13:05:09;8.18;;;3.97;;
20124;SDS011;10223;50.862;4.360;2023-07-31T13:07:38;9.75;;;3.95;;
20124;SDS011;10223;50.862;4.360;2023-07-31T13:10:05;9.18;;;3.40;;
20124;SDS011;10223;50.862;4.360;2023-07-31T13:12:33;9.70;;;3.42;;
20124;SDS011;10223;50.862;4.360;2023-07-31T13:15:00;4.82;;;2.40;;
20124;SDS011;10223;50.862;4.360;2023-07-31T13:17:27;10.73;;;3.30;;
20124;SDS011;10223;50.862;4.360;2023-07-31T13:19:55;6.30;;;2.28;;
20124;SDS011;10223;50.862;4.360;2023-07-31T13:22:22;7.97;;;2.83;;
20124;SDS011;10223;50.862;4.360;2023-07-31T13:24:49;7.65;;;3.03;;
20124;SDS011;10223;50.862;4.360;2023-07-31T13:27:16;6.53;;;2.53;;
20124;SDS011;10223;50.862;4.360;2023-07-31T13:29:44;10.68;;;3.80;;
20124;SDS011;10223;50.862;4.360;2023-07-31T13:32:11;6.20;;;3.10;;
20124;SDS011;10223;50.862;4.360;2023-07-31T13:34:38;11.00;;;2.88;;
20124;SDS011;10223;50.862;4.360;2023-07-31T13:37:06;7.50;;;2.97;;
20124;SDS011;10223;50.862;4.360;2023-07-31T13:39:33;6.25;;;2.97;;
20124;SDS011;10223;50.862;4.360;2023-07-31T13:42:00;8.98;;;3.45;;
20124;SDS011;10223;50.862;4.360;2023-07-31T13:44:27;9.32;;;3.30;;
20124;SDS011;10223;50.862;4.360;2023-07-31T13:46:54;7.22;;;3.35;;
20124;SDS011;10223;50.862;4.360;2023-07-31T13:49:21;6.18;;;3.10;;
20124;SDS011;10223;50.862;4.360;2023-07-31T13:51:48;8.57;;;3.50;;
20124;SDS011;10223;50.862;4.360;2023-07-31T13:54:16;9.35;;;3.90;;
20124;SDS011;10223;50.862;4.360;2023-07-31T13:56:43;6.95;;;3.33;;
20124;SDS011;10223;50.862;4.360;2023-07-31T13:59:10;8.95;;;4.20;;
20124;SDS011;10223;50.862;4.360;2023-07-31T14:01:37;7.55;;;3.78;;
20124;SDS011;10223;50.862;4.360;2023-07-31T14:04:04;9.15;;;3.40;;
20124;SDS011;10223;50.862;4.360;2023-07-31T14:06:31;8.20;;;3.97;;
20124;SDS011;10223;50.862;4.360;2023-07-31T14:08:57;7.85;;;4.18;;
20124;SDS011;10223;50.862;4.360;2023-07-31T14:11:26;10.27;;;6.03;;
20124;SDS011;10223;50.862;4.360;2023-07-31T14:13:53;6.93;;;3.63;;
20124;SDS011;10223;50.862;4.360;2023-07-31T14:16:19;10.50;;;4.00;;
20124;SDS011;10223;50.862;4.360;2023-07-31T14:18:47;8.13;;;4.20;;
20124;SDS011;10223;50.862;4.360;2023-07-31T14:21:14;8.48;;;4.10;;
20124;SDS011;10223;50.862;4.360;2023-07-31T14:23:41;8.25;;;3.95;;
20124;SDS011;10223;50.862;4.360;2023-07-31T14:26:08;7.25;;;4.28;;
20124;SDS011;10223;50.862;4.360;2023-07-31T14:28:36;10.27;;;4.07;;
20124;SDS011;10223;50.862;4.360;2023-07-31T14:31:03;8.23;;;4.00;;
20124;SDS011;10223;50.862;4.360;2023-07-31T14:33:30;9.05;;;3.92;;
20124;SDS011;10223;50.862;4.360;2023-07-31T14:35:57;7.75;;;4.07;;
20124;SDS011;10223;50.862;4.360;2023-07-31T14:38:24;9.18;;;3.75;;
20124;SDS011;10223;50.862;4.360;2023-07-31T14:40:51;7.25;;;3.78;;
20124;SDS011;10223;50.862;4.360;2023-07-31T14:43:18;6.70;;;3.25;;